sensor_id;sensor_type;location;lat;lon;timestamp;pressure;altitude;pressure_sealevel;temperature;humidity
71948;BME280;63257;55.082;38.772;2024-01-15T00:01:17;97992.09;;;-8.44;73.47
71948;BME280;63257;55.082;38.772;2024-01-15T00:03:43;97981.81;;;-8.41;73.21
71948;BME280;63257;55.082;38.772;2024-01-15T00:06:09;98005.50;;;-8.18;73.17
71948;BME280;63257;55.082;38.772;2024-01-15T00:08:37;97991.88;;;-8.18;73.06
71948;BME280;63257;55.082;38.772;2024-01-15T00:11:03;97984.16;;;-8.16;73.07
71948;BME280;63257;55.082;38.772;2024-01-15T00:13:29;98016.41;;;-7.98;73.67
71948;BME280;63257;55.082;38.772;2024-01-15T00:15:55;97993.28;;;-7.89;73.41
71948;BME280;63257;55.082;38.772;2024-01-15T00:18:21;97995.84;;;-7.89;73.22
71948;BME280;63257;55.082;38.772;2024-01-15T00:20:47;97977.22;;;-8.02;73.64
71948;BME280;63257;55.082;38.772;2024-01-15T00:23:13;97993.22;;;-7.81;73.62
71948;BME280;63257;55.082;38.772;2024-01-15T00:25:38;97992.34;;;-7.79;73.58
71948;BME280;63257;55.082;38.772;2024-01-15T00:28:04;97997.34;;;-7.70;73.58
71948;BME280;63257;55.082;38.772;2024-01-15T00:30:30;98002.44;;;-7.65;73.36
71948;BME280;63257;55.082;38.772;2024-01-15T00:32:56;97987.81;;;-7.60;73.34
71948;BME280;63257;55.082;38.772;2024-01-15T00:35:22;97968.44;;;-7.81;73.68
71948;BME280;63257;55.082;38.772;2024-01-15T00:37:47;97965.03;;;-7.80;73.89
71948;BME280;63257;55.082;38.772;2024-01-15T00:40:13;97987.06;;;-7.67;73.80
71948;BME280;63257;55.082;38.772;2024-01-15T00:42:39;97988.84;;;-7.72;74.24
71948;BME280;63257;55.082;38.772;2024-01-15T00:45:05;97954.72;;;-7.77;74.08
71948;BME280;63257;55.082;38.772;2024-01-15T00:47:33;97969.97;;;-7.64;73.70
71948;BME280;63257;55.082;38.772;2024-01-15T00:50:00;97972.53;;;-7.64;73.87
71948;BME280;63257;55.082;38.772;2024-01-15T00:52:26;97976.84;;;-7.70;74.14
71948;BME280;63257;55.082;38.772;2024-01-15T00:54:52;97954.69;;;-7.71;73.94
71948;BME280;63257;55.082;38.772;2024-01-15T00:57:17;97984.44;;;-7.60;73.77
71948;BME280;63257;55.082;38.772;2024-01-15T00:59:45;97949.59;;;-7.77;74.15
71948;BME280;63257;55.082;38.772;2024-01-15T01:02:10;97974.28;;;-7.67;74.07
71948;BME280;63257;55.082;38.772;2024-01-15T01:04:36;97964.91;;;-7.69;73.91
71948;BME280;63257;55.082;38.772;2024-01-15T01:07:02;97971.69;;;-7.68;73.99
71948;BME280;63257;55.082;38.772;2024-01-15T01:09:28;97971.69;;;-7.68;73.90
71948;BME280;63257;55.082;38.772;2024-01-15T01:11:56;97963.19;;;-7.70;73.63
71948;BME280;63257;55.082;38.772;2024-01-15T01:14:22;97956.28;;;-7.62;73.64
71948;BME280;63257;55.082;38.772;2024-01-15T01:16:48;97951.16;;;-7.63;73.45
71948;BME280;63257;55.082;38.772;2024-01-15T01:19:14;97946.00;;;-7.60;73.85
71948;BME280;63257;55.082;38.772;2024-01-15T01:21:39;97944.19;;;-7.52;74.33
71948;BME280;63257;55.082;38.772;2024-01-15T01:24:05;97941.66;;;-7.54;74.15
71948;BME280;63257;55.082;38.772;2024-01-15T01:26:31;97916.94;;;-7.59;73.82
71948;BME280;63257;55.082;38.772;2024-01-15T01:28:57;97920.41;;;-7.63;73.96
71948;BME280;63257;55.082;38.772;2024-01-15T01:31:23;97921.22;;;-7.58;74.53
71948;BME280;63257;55.082;38.772;2024-01-15T01:33:49;97915.97;;;-7.51;74.01
71948;BME280;63257;55.082;38.772;2024-01-15T01:36:15;97931.94;;;-7.31;74.12
71948;BME280;63257;55.082;38.772;2024-01-15T01:38:41;97930.22;;;-7.29;74.80
71948;BME280;63257;55.082;38.772;2024-01-15T01:41:07;97924.19;;;-7.25;74.08
71948;BME280;63257;55.082;38.772;2024-01-15T01:43:33;97886.78;;;-7.39;74.83
71948;BME280;63257;55.082;38.772;2024-01-15T01:46:00;97911.41;;;-7.28;74.56
71948;BME280;63257;55.082;38.772;2024-01-15T01:48:27;97919.00;;;-7.21;74.77
71948;BME280;63257;55.082;38.772;2024-01-15T01:50:55;97894.31;;;-7.28;75.27
71948;BME280;63257;55.082;38.772;2024-01-15T01:53:22;97908.72;;;-7.21;75.17
71948;BME280;63257;55.082;38.772;2024-01-15T01:55:49;97916.16;;;-7.04;75.35
71948;BME280;63257;55.082;38.772;2024-01-15T01:58:16;97903.34;;;-7.04;74.96
71948;BME280;63257;55.082;38.772;2024-01-15T02:00:43;97889.06;;;-7.20;75.78
71948;BME280;63257;55.082;38.772;2024-01-15T02:03:09;97891.53;;;-7.14;76.27
71948;BME280;63257;55.082;38.772;2024-01-15T02:05:35;97903.41;;;-7.07;75.41
71948;BME280;63257;55.082;38.772;2024-01-15T02:08:01;97914.41;;;-7.00;75.65
71948;BME280;63257;55.082;38.772;2024-01-15T02:10:46;97872.00;;;-7.21;75.00
71948;BME280;63257;55.082;38.772;2024-01-15T02:13:12;97894.81;;;-7.04;75.24
71948;BME280;63257;55.082;38.772;2024-01-15T02:15:38;97894.00;;;-7.08;75.41
71948;BME280;63257;55.082;38.772;2024-01-15T02:18:05;97875.19;;;-7.07;75.74
71948;BME280;63257;55.082;38.772;2024-01-15T02:20:32;97869.06;;;-6.98;75.25
71948;BME280;63257;55.082;38.772;2024-01-15T02:23:15;97892.84;;;-6.87;75.12
71948;BME280;63257;55.082;38.772;2024-01-15T02:25:43;97864.75;;;-6.96;75.40
71948;BME280;63257;55.082;38.772;2024-01-15T02:28:12;97891.88;;;-6.81;75.43
71948;BME280;63257;55.082;38.772;2024-01-15T02:30:39;97873.22;;;-6.89;75.63
71948;BME280;63257;55.082;38.772;2024-01-15T02:33:06;97879.97;;;-6.85;75.45
71948;BME280;63257;55.082;38.772;2024-01-15T02:35:32;97887.56;;;-6.79;75.68
71948;BME280;63257;55.082;38.772;2024-01-15T02:37:59;97885.09;;;-6.84;75.90
71948;BME280;63257;55.082;38.772;2024-01-15T02:40:44;97882.31;;;-6.71;75.68
71948;BME280;63257;55.082;38.772;2024-01-15T02:43:10;97872.22;;;-6.82;75.29
71948;BME280;63257;55.082;38.772;2024-01-15T02:45:36;97861.19;;;-6.87;75.32
71948;BME280;63257;55.082;38.772;2024-01-15T02:48:02;97868.00;;;-6.85;75.34
71948;BME280;63257;55.082;38.772;2024-01-15T02:50:28;97880.66;;;-6.75;75.29
71948;BME280;63257;55.082;38.772;2024-01-15T02:52:54;97888.34;;;-6.74;75.30
71948;BME280;63257;55.082;38.772;2024-01-15T02:55:20;97887.53;;;-6.77;75.51
71948;BME280;63257;55.082;38.772;2024-01-15T02:57:46;97889.31;;;-6.81;75.75
71948;BME280;63257;55.082;38.772;2024-01-15T03:00:12;97882.53;;;-6.85;76.45
71948;BME280;63257;55.082;38.772;2024-01-15T03:02:39;97893.53;;;-6.77;75.87
71948;BME280;63257;55.082;38.772;2024-01-15T03:05:06;97882.47;;;-6.80;75.87
71948;BME280;63257;55.082;38.772;2024-01-15T03:08:10;97884.25;;;-6.84;75.58
71948;BME280;63257;55.082;38.772;2024-01-15T03:10:35;97880.72;;;-6.78;75.85
71948;BME280;63257;55.082;38.772;2024-01-15T03:13:01;97874.94;;;-6.91;75.69
71948;BME280;63257;55.082;38.772;2024-01-15T03:15:46;97873.19;;;-6.88;76.30
71948;BME280;63257;55.082;38.772;2024-01-15T03:18:11;97880.03;;;-6.88;76.34
71948;BME280;63257;55.082;38.772;2024-01-15T03:20:37;97873.22;;;-6.89;76.51
71948;BME280;63257;55.082;38.772;2024-01-15T03:23:03;97864.66;;;-6.91;76.62
71948;BME280;63257;55.082;38.772;2024-01-15T03:25:29;97872.22;;;-6.82;76.56
71948;BME280;63257;55.082;38.772;2024-01-15T03:27:55;97882.38;;;-6.74;76.77
71948;BME280;63257;55.082;38.772;2024-01-15T03:30:20;97871.00;;;-6.59;77.03
71948;BME280;63257;55.082;38.772;2024-01-15T03:32:46;97841.44;;;-6.82;76.64
71948;BME280;63257;55.082;38.772;2024-01-15T03:35:13;97870.25;;;-6.66;77.12
71948;BME280;63257;55.082;38.772;2024-01-15T03:37:39;97867.59;;;-6.61;77.72
71948;BME280;63257;55.082;38.772;2024-01-15T03:43:08;97860.75;;;-6.61;77.97
71948;BME280;63257;55.082;38.772;2024-01-15T03:45:34;97844.63;;;-6.69;77.95
71948;BME280;63257;55.082;38.772;2024-01-15T03:47:59;97865.69;;;-6.50;77.74
71948;BME280;63257;55.082;38.772;2024-01-15T03:50:25;97866.47;;;-6.45;77.52
71948;BME280;63257;55.082;38.772;2024-01-15T03:52:51;97859.59;;;-6.44;77.76
71948;BME280;63257;55.082;38.772;2024-01-15T03:55:17;97861.22;;;-6.40;77.56
71948;BME280;63257;55.082;38.772;2024-01-15T03:57:43;97822.97;;;-6.54;77.84
71948;BME280;63257;55.082;38.772;2024-01-15T04:00:27;97844.16;;;-6.41;77.61
71948;BME280;63257;55.082;38.772;2024-01-15T04:02:53;97856.88;;;-6.37;77.65
71948;BME280;63257;55.082;38.772;2024-01-15T04:05:19;97829.72;;;-6.47;77.84
71948;BME280;63257;55.082;38.772;2024-01-15T04:08:04;97835.47;;;-6.36;78.00
71948;BME280;63257;55.082;38.772;2024-01-15T04:10:30;97845.78;;;-6.37;78.16
71948;BME280;63257;55.082;38.772;2024-01-15T04:12:56;97850.00;;;-6.33;77.93
71948;BME280;63257;55.082;38.772;2024-01-15T04:15:21;97823.72;;;-6.48;77.90
71948;BME280;63257;55.082;38.772;2024-01-15T04:17:47;97851.53;;;-6.24;78.14
71948;BME280;63257;55.082;38.772;2024-01-15T04:20:13;97851.63;;;-6.29;77.81
71948;BME280;63257;55.082;38.772;2024-01-15T04:22:39;97850.59;;;-6.20;78.03
71948;BME280;63257;55.082;38.772;2024-01-15T04:25:05;97846.16;;;-6.12;77.89
71948;BME280;63257;55.082;38.772;2024-01-15T04:27:31;97831.09;;;-6.29;77.75
71948;BME280;63257;55.082;38.772;2024-01-15T04:29:57;97840.22;;;-6.14;77.80
71948;BME280;63257;55.082;38.772;2024-01-15T04:32:23;97843.56;;;-6.12;77.98
71948;BME280;63257;55.082;38.772;2024-01-15T04:34:48;97824.94;;;-6.22;77.78
71948;BME280;63257;55.082;38.772;2024-01-15T04:37:14;97822.19;;;-6.12;78.07
71948;BME280;63257;55.082;38.772;2024-01-15T04:39:40;97835.63;;;-6.00;77.64
71948;BME280;63257;55.082;38.772;2024-01-15T04:42:06;97835.63;;;-6.00;77.95
71948;BME280;63257;55.082;38.772;2024-01-15T04:44:50;97851.53;;;-5.82;77.74
71948;BME280;63257;55.082;38.772;2024-01-15T04:47:16;97818.13;;;-5.82;77.33
71948;BME280;63257;55.082;38.772;2024-01-15T04:49:42;97841.72;;;-5.65;76.44
71948;BME280;63257;55.082;38.772;2024-01-15T04:52:08;97828.19;;;-5.73;76.79
71948;BME280;63257;55.082;38.772;2024-01-15T04:54:36;97834.97;;;-5.69;77.03
71948;BME280;63257;55.082;38.772;2024-01-15T04:57:02;97841.59;;;-5.58;76.31
71948;BME280;63257;55.082;38.772;2024-01-15T04:59:28;97849.91;;;-5.47;76.56
71948;BME280;63257;55.082;38.772;2024-01-15T05:01:55;97826.22;;;-5.62;76.24
71948;BME280;63257;55.082;38.772;2024-01-15T05:04:21;97846.56;;;-5.51;76.34
71948;BME280;63257;55.082;38.772;2024-01-15T05:06:46;97853.34;;;-5.47;76.43
71948;BME280;63257;55.082;38.772;2024-01-15T05:09:12;97830.38;;;-5.56;76.17
71948;BME280;63257;55.082;38.772;2024-01-15T05:11:41;97848.13;;;-5.43;76.38
71948;BME280;63257;55.082;38.772;2024-01-15T05:14:07;97837.22;;;-5.55;76.57
71948;BME280;63257;55.082;38.772;2024-01-15T05:16:33;97823.59;;;-5.58;76.33
71948;BME280;63257;55.082;38.772;2024-01-15T05:19:18;97842.22;;;-5.49;76.85
71948;BME280;63257;55.082;38.772;2024-01-15T05:21:44;97836.16;;;-5.46;77.01
71948;BME280;63257;55.082;38.772;2024-01-15T05:24:09;97845.38;;;-5.36;76.76
71948;BME280;63257;55.082;38.772;2024-01-15T05:26:35;97822.28;;;-5.39;76.62
71948;BME280;63257;55.082;38.772;2024-01-15T05:29:01;97848.53;;;-5.24;76.84
71948;BME280;63257;55.082;38.772;2024-01-15T05:31:27;97846.06;;;-5.28;76.55
71948;BME280;63257;55.082;38.772;2024-01-15T05:33:53;97842.53;;;-5.23;76.48
71948;BME280;63257;55.082;38.772;2024-01-15T05:36:19;97837.38;;;-5.25;76.73
71948;BME280;63257;55.082;38.772;2024-01-15T05:38:44;97820.47;;;-5.34;76.80
71948;BME280;63257;55.082;38.772;2024-01-15T05:41:10;97820.63;;;-5.40;76.83
71948;BME280;63257;55.082;38.772;2024-01-15T05:46:21;97849.41;;;-5.25;77.20
71948;BME280;63257;55.082;38.772;2024-01-15T05:48:46;97837.50;;;-5.30;77.09
71948;BME280;63257;55.082;38.772;2024-01-15T05:51:12;97841.75;;;-5.27;77.32
71948;BME280;63257;55.082;38.772;2024-01-15T05:53:38;97820.38;;;-5.31;77.52
71948;BME280;63257;55.082;38.772;2024-01-15T05:56:24;97845.75;;;-5.15;77.41
71948;BME280;63257;55.082;38.772;2024-01-15T05:58:51;97845.03;;;-5.20;77.53
71948;BME280;63257;55.082;38.772;2024-01-15T06:01:17;97854.28;;;-5.13;77.13
71948;BME280;63257;55.082;38.772;2024-01-15T06:03:43;97850.88;;;-5.14;77.13
71948;BME280;63257;55.082;38.772;2024-01-15T06:06:09;97837.38;;;-5.23;77.12
71948;BME280;63257;55.082;38.772;2024-01-15T06:08:35;97846.47;;;-5.10;77.06
71948;BME280;63257;55.082;38.772;2024-01-15T06:11:01;97832.19;;;-5.22;77.27
71948;BME280;63257;55.082;38.772;2024-01-15T06:13:27;97830.28;;;-5.14;78.63
71948;BME280;63257;55.082;38.772;2024-01-15T06:15:52;97848.66;;;-4.93;77.40
71948;BME280;63257;55.082;38.772;2024-01-15T06:18:18;97851.41;;;-5.01;77.04
71948;BME280;63257;55.082;38.772;2024-01-15T06:20:44;97844.44;;;-4.96;77.48
71948;BME280;63257;55.082;38.772;2024-01-15T06:23:10;97830.03;;;-5.03;77.22
71948;BME280;63257;55.082;38.772;2024-01-15T06:25:35;97847.81;;;-4.94;77.15
71948;BME280;63257;55.082;38.772;2024-01-15T06:28:20;97848.41;;;-4.84;77.23
71948;BME280;63257;55.082;38.772;2024-01-15T06:30:46;97829.72;;;-4.90;77.87
71948;BME280;63257;55.082;38.772;2024-01-15T06:33:12;97822.88;;;-4.91;76.71
71948;BME280;63257;55.082;38.772;2024-01-15T06:35:37;97846.47;;;-4.74;76.55
71948;BME280;63257;55.082;38.772;2024-01-15T06:38:03;97849.94;;;-4.75;76.54
71948;BME280;63257;55.082;38.772;2024-01-15T06:40:29;97826.84;;;-4.78;76.52
71948;BME280;63257;55.082;38.772;2024-01-15T06:42:55;97848.56;;;-4.55;76.26
71948;BME280;63257;55.082;38.772;2024-01-15T06:45:20;97833.31;;;-4.62;75.73
71948;BME280;63257;55.082;38.772;2024-01-15T06:47:46;97849.25;;;-4.49;75.81
71948;BME280;63257;55.082;38.772;2024-01-15T06:50:12;97852.66;;;-4.48;75.39
71948;BME280;63257;55.082;38.772;2024-01-15T06:52:38;97847.53;;;-4.48;75.08
71948;BME280;63257;55.082;38.772;2024-01-15T06:55:04;97837.31;;;-4.51;75.25
71948;BME280;63257;55.082;38.772;2024-01-15T06:57:31;97854.31;;;-4.46;75.52
71948;BME280;63257;55.082;38.772;2024-01-15T06:59:57;97829.94;;;-4.65;75.74
71948;BME280;63257;55.082;38.772;2024-01-15T07:02:23;97851.16;;;-4.55;75.91
71948;BME280;63257;55.082;38.772;2024-01-15T07:04:48;97835.84;;;-4.60;76.22
71948;BME280;63257;55.082;38.772;2024-01-15T07:07:14;97835.66;;;-4.54;76.01
71948;BME280;63257;55.082;38.772;2024-01-15T07:09:40;97851.47;;;-4.35;75.97
71948;BME280;63257;55.082;38.772;2024-01-15T07:12:06;97842.19;;;-4.40;75.67
71948;BME280;63257;55.082;38.772;2024-01-15T07:14:51;97847.59;;;-4.18;74.99
71948;BME280;63257;55.082;38.772;2024-01-15T07:17:16;97847.84;;;-4.28;75.08
71948;BME280;63257;55.082;38.772;2024-01-15T07:19:42;97846.53;;;-4.11;74.74
71948;BME280;63257;55.082;38.772;2024-01-15T07:22:08;97841.09;;;-4.00;74.22
71948;BME280;63257;55.082;38.772;2024-01-15T07:24:34;97829.31;;;-4.09;73.40
71948;BME280;63257;55.082;38.772;2024-01-15T07:27:00;97848.75;;;-3.99;74.31
71948;BME280;63257;55.082;38.772;2024-01-15T07:29:44;97839.22;;;-3.95;74.05
71948;BME280;63257;55.082;38.772;2024-01-15T07:32:11;97830.56;;;-3.93;73.68
71948;BME280;63257;55.082;38.772;2024-01-15T07:34:37;97852.69;;;-3.85;73.38
71948;BME280;63257;55.082;38.772;2024-01-15T07:39:49;97838.72;;;-3.78;72.50
71948;BME280;63257;55.082;38.772;2024-01-15T07:42:15;97853.44;;;-3.52;71.98
71948;BME280;63257;55.082;38.772;2024-01-15T07:44:40;97843.47;;;-3.63;71.88
71948;BME280;63257;55.082;38.772;2024-01-15T07:47:25;97834.75;;;-3.59;71.88
71948;BME280;63257;55.082;38.772;2024-01-15T07:49:50;97837.63;;;-3.41;71.66
71948;BME280;63257;55.082;38.772;2024-01-15T07:52:16;97850.69;;;-3.17;70.91
71948;BME280;63257;55.082;38.772;2024-01-15T07:54:42;97827.16;;;-3.35;70.43
71948;BME280;63257;55.082;38.772;2024-01-15T07:57:08;97849.53;;;-3.09;70.21
71948;BME280;63257;55.082;38.772;2024-01-15T07:59:35;97832.81;;;-3.24;70.02
71948;BME280;63257;55.082;38.772;2024-01-15T08:02:01;97851.13;;;-3.04;70.20
71948;BME280;63257;55.082;38.772;2024-01-15T08:04:26;97858.97;;;-3.08;69.76
71948;BME280;63257;55.082;38.772;2024-01-15T08:06:52;97854.28;;;-3.23;70.99
71948;BME280;63257;55.082;38.772;2024-01-15T08:09:18;97850.31;;;-3.05;70.17
71948;BME280;63257;55.082;38.772;2024-01-15T08:11:44;97827.75;;;-3.27;70.47
71948;BME280;63257;55.082;38.772;2024-01-15T08:14:10;97854.59;;;-3.05;70.30
71948;BME280;63257;55.082;38.772;2024-01-15T08:16:37;97856.03;;;-3.24;70.05
71948;BME280;63257;55.082;38.772;2024-01-15T08:19:03;97830.38;;;-3.28;70.26
71948;BME280;63257;55.082;38.772;2024-01-15T08:21:29;97832.25;;;-3.07;70.12
71948;BME280;63257;55.082;38.772;2024-01-15T08:24:02;97856.06;;;-2.97;70.11
71948;BME280;63257;55.082;38.772;2024-01-15T08:26:29;97861.63;;;-2.82;69.80
71948;BME280;63257;55.082;38.772;2024-01-15T08:31:39;97834.44;;;-2.93;69.63
71948;BME280;63257;55.082;38.772;2024-01-15T08:34:04;97866.72;;;-2.54;69.21
71948;BME280;63257;55.082;38.772;2024-01-15T08:36:30;97858.88;;;-2.51;68.80
71948;BME280;63257;55.082;38.772;2024-01-15T08:38:56;97831.63;;;-2.60;69.15
71948;BME280;63257;55.082;38.772;2024-01-15T08:41:22;97835.28;;;-2.67;69.21
71948;BME280;63257;55.082;38.772;2024-01-15T08:43:48;97850.28;;;-2.51;69.48
71948;BME280;63257;55.082;38.772;2024-01-15T08:46:14;97848.59;;;-2.52;69.43
71948;BME280;63257;55.082;38.772;2024-01-15T08:48:40;97831.38;;;-2.53;69.06
71948;BME280;63257;55.082;38.772;2024-01-15T08:51:25;97853.88;;;-2.56;68.87
71948;BME280;63257;55.082;38.772;2024-01-15T08:53:50;97847.09;;;-2.34;68.59
71948;BME280;63257;55.082;38.772;2024-01-15T08:56:16;97832.94;;;-2.24;66.99
71948;BME280;63257;55.082;38.772;2024-01-15T08:58:42;97845.72;;;-2.19;67.56
71948;BME280;63257;55.082;38.772;2024-01-15T09:01:08;97824.88;;;-2.15;67.19
71948;BME280;63257;55.082;38.772;2024-01-15T09:03:34;97832.13;;;-2.01;66.81
71948;BME280;63257;55.082;38.772;2024-01-15T09:06:00;97846.75;;;-2.00;66.87
71948;BME280;63257;55.082;38.772;2024-01-15T09:08:26;97844.16;;;-2.00;67.83
71948;BME280;63257;55.082;38.772;2024-01-15T09:10:53;97818.06;;;-2.17;68.00
71948;BME280;63257;55.082;38.772;2024-01-15T09:13:18;97834.84;;;-2.04;68.27
71948;BME280;63257;55.082;38.772;2024-01-15T09:15:44;97840.50;;;-1.71;67.97
71948;BME280;63257;55.082;38.772;2024-01-15T09:18:28;97827.63;;;-1.72;66.31
71948;BME280;63257;55.082;38.772;2024-01-15T09:21:13;97856.50;;;-1.59;67.58
71948;BME280;63257;55.082;38.772;2024-01-15T09:23:39;97861.00;;;-1.64;66.91
71948;BME280;63257;55.082;38.772;2024-01-15T09:26:23;97853.59;;;-1.51;66.82
71948;BME280;63257;55.082;38.772;2024-01-15T09:28:49;97843.66;;;-1.62;67.40
71948;BME280;63257;55.082;38.772;2024-01-15T09:31:15;97850.25;;;-1.09;65.95
71948;BME280;63257;55.082;38.772;2024-01-15T09:33:43;97847.13;;;-1.40;65.96
71948;BME280;63257;55.082;38.772;2024-01-15T09:39:13;97839.22;;;-1.37;66.06
71948;BME280;63257;55.082;38.772;2024-01-15T09:41:39;97820.28;;;-1.37;66.70
71948;BME280;63257;55.082;38.772;2024-01-15T09:44:05;97826.66;;;-1.46;66.73
71948;BME280;63257;55.082;38.772;2024-01-15T09:46:49;97847.75;;;-1.33;65.98
71948;BME280;63257;55.082;38.772;2024-01-15T09:49:17;97841.69;;;-1.33;66.37
71948;BME280;63257;55.082;38.772;2024-01-15T09:51:44;97819.13;;;-1.52;66.48
71948;BME280;63257;55.082;38.772;2024-01-15T09:54:10;97838.94;;;-1.51;66.89
71948;BME280;63257;55.082;38.772;2024-01-15T09:56:39;97841.69;;;-1.33;66.21
71948;BME280;63257;55.082;38.772;2024-01-15T09:59:05;97837.91;;;-1.47;66.33
71948;BME280;63257;55.082;38.772;2024-01-15T10:01:50;97847.31;;;-1.44;66.58
71948;BME280;63257;55.082;38.772;2024-01-15T10:04:16;97829.84;;;-1.39;66.54
71948;BME280;63257;55.082;38.772;2024-01-15T10:06:44;97836.84;;;-1.41;65.85
71948;BME280;63257;55.082;38.772;2024-01-15T10:09:13;97839.84;;;-1.52;66.37
71948;BME280;63257;55.082;38.772;2024-01-15T10:11:43;97821.34;;;-1.65;66.99
71948;BME280;63257;55.082;38.772;2024-01-15T10:14:12;97820.28;;;-1.59;66.27
71948;BME280;63257;55.082;38.772;2024-01-15T10:16:39;97841.81;;;-1.37;66.20
71948;BME280;63257;55.082;38.772;2024-01-15T10:19:05;97829.63;;;-1.11;65.34
71948;BME280;63257;55.082;38.772;2024-01-15T10:21:34;97826.34;;;-0.94;65.01
71948;BME280;63257;55.082;38.772;2024-01-15T10:24:01;97833.75;;;-0.84;64.41
71948;BME280;63257;55.082;38.772;2024-01-15T10:26:29;97838.19;;;-0.88;64.56
71948;BME280;63257;55.082;38.772;2024-01-15T10:28:55;97835.75;;;-1.13;65.42
71948;BME280;63257;55.082;38.772;2024-01-15T10:31:21;97825.69;;;-1.43;65.92
71948;BME280;63257;55.082;38.772;2024-01-15T10:34:10;97833.81;;;-1.52;66.64
71948;BME280;63257;55.082;38.772;2024-01-15T10:36:39;97834.38;;;-1.44;67.10
71948;BME280;63257;55.082;38.772;2024-01-15T10:39:06;97789.75;;;-1.73;67.05
71948;BME280;63257;55.082;38.772;2024-01-15T10:41:33;97827.66;;;-1.50;66.89
71948;BME280;63257;55.082;38.772;2024-01-15T10:43:59;97813.13;;;-1.52;66.48
71948;BME280;63257;55.082;38.772;2024-01-15T10:46:25;97805.22;;;-1.49;66.20
71948;BME280;63257;55.082;38.772;2024-01-15T10:48:51;97806.47;;;-1.60;66.74
71948;BME280;63257;55.082;38.772;2024-01-15T10:51:18;97803.28;;;-1.66;67.20
71948;BME280;63257;55.082;38.772;2024-01-15T10:53:44;97816.06;;;-1.62;66.90
71948;BME280;63257;55.082;38.772;2024-01-15T10:56:11;97809.00;;;-1.58;67.58
71948;BME280;63257;55.082;38.772;2024-01-15T10:58:39;97812.50;;;-1.59;67.61
71948;BME280;63257;55.082;38.772;2024-01-15T11:01:06;97811.78;;;-1.63;67.42
71948;BME280;63257;55.082;38.772;2024-01-15T11:03:32;97807.63;;;-1.67;68.12
71948;BME280;63257;55.082;38.772;2024-01-15T11:05:59;97810.25;;;-1.68;67.34
71948;BME280;63257;55.082;38.772;2024-01-15T11:08:25;97807.19;;;-1.78;68.46
71948;BME280;63257;55.082;38.772;2024-01-15T11:11:10;97802.88;;;-2.01;68.24
71948;BME280;63257;55.082;38.772;2024-01-15T11:16:05;97802.31;;;-2.10;69.20
71948;BME280;63257;55.082;38.772;2024-01-15T11:18:35;97810.22;;;-2.14;69.87
71948;BME280;63257;55.082;38.772;2024-01-15T11:26:44;97797.19;;;-2.11;69.99
71948;BME280;63257;55.082;38.772;2024-01-15T11:32:14;97783.56;;;-1.93;70.04
71948;BME280;63257;55.082;38.772;2024-01-15T11:35:02;97771.03;;;-2.03;69.63
71948;BME280;63257;55.082;38.772;2024-01-15T11:40:20;97797.34;;;-2.16;70.56
71948;BME280;63257;55.082;38.772;2024-01-15T11:42:47;97796.28;;;-1.86;70.41
71948;BME280;63257;55.082;38.772;2024-01-15T11:45:32;97781.16;;;-1.97;69.40
71948;BME280;63257;55.082;38.772;2024-01-15T11:48:15;97793.09;;;-1.93;69.42
71948;BME280;63257;55.082;38.772;2024-01-15T11:50:44;97801.28;;;-1.82;70.87
71948;BME280;63257;55.082;38.772;2024-01-15T11:53:26;97772.34;;;-1.92;69.70
71948;BME280;63257;55.082;38.772;2024-01-15T11:55:57;97787.84;;;-1.92;70.13
71948;BME280;63257;55.082;38.772;2024-01-15T11:58:23;97795.81;;;-1.74;70.43
71948;BME280;63257;55.082;38.772;2024-01-15T12:00:51;97783.75;;;-1.97;69.65
71948;BME280;63257;55.082;38.772;2024-01-15T12:03:22;97792.03;;;-2.11;70.22
71948;BME280;63257;55.082;38.772;2024-01-15T12:06:06;97800.53;;;-2.09;70.93
71948;BME280;63257;55.082;38.772;2024-01-15T12:08:33;97815.16;;;-1.84;71.68
71948;BME280;63257;55.082;38.772;2024-01-15T12:10:58;97797.75;;;-2.03;70.82
71948;BME280;63257;55.082;38.772;2024-01-15T12:13:24;97805.34;;;-1.98;70.95
71948;BME280;63257;55.082;38.772;2024-01-15T12:15:50;97781.88;;;-2.17;71.02
71948;BME280;63257;55.082;38.772;2024-01-15T12:18:18;97808.25;;;-2.08;71.19
71948;BME280;63257;55.082;38.772;2024-01-15T12:20:45;97801.47;;;-2.10;72.66
71948;BME280;63257;55.082;38.772;2024-01-15T12:23:13;97803.25;;;-2.12;72.58
71948;BME280;63257;55.082;38.772;2024-01-15T12:25:58;97784.91;;;-2.30;74.17
71948;BME280;63257;55.082;38.772;2024-01-15T12:28:27;97813.09;;;-2.22;74.24
71948;BME280;63257;55.082;38.772;2024-01-15T12:30:53;97810.56;;;-2.24;74.19
71948;BME280;63257;55.082;38.772;2024-01-15T12:33:19;97813.13;;;-2.24;73.44
71948;BME280;63257;55.082;38.772;2024-01-15T12:35:47;97808.41;;;-2.36;73.70
71948;BME280;63257;55.082;38.772;2024-01-15T12:38:13;97794.41;;;-2.54;74.25
71948;BME280;63257;55.082;38.772;2024-01-15T12:40:39;97807.44;;;-2.59;73.76
71948;BME280;63257;55.082;38.772;2024-01-15T12:43:05;97811.72;;;-2.58;74.52
71948;BME280;63257;55.082;38.772;2024-01-15T12:48:16;97810.91;;;-2.58;74.08
71948;BME280;63257;55.082;38.772;2024-01-15T12:50:43;97782.78;;;-2.67;74.29
71948;BME280;63257;55.082;38.772;2024-01-15T12:53:11;97810.78;;;-2.55;73.75
71948;BME280;63257;55.082;38.772;2024-01-15T12:55:36;97813.72;;;-2.66;74.50
71948;BME280;63257;55.082;38.772;2024-01-15T12:58:02;97812.72;;;-2.62;74.62
71948;BME280;63257;55.082;38.772;2024-01-15T13:00:28;97789.22;;;-2.79;74.87
71948;BME280;63257;55.082;38.772;2024-01-15T13:02:54;97823.16;;;-2.65;75.35
71948;BME280;63257;55.082;38.772;2024-01-15T13:05:22;97816.19;;;-2.63;75.73
71948;BME280;63257;55.082;38.772;2024-01-15T13:07:48;97794.47;;;-2.82;75.73
71948;BME280;63257;55.082;38.772;2024-01-15T13:10:13;97780.78;;;-2.84;75.56
71948;BME280;63257;55.082;38.772;2024-01-15T13:12:40;97779.22;;;-2.90;75.67
71948;BME280;63257;55.082;38.772;2024-01-15T13:15:06;97793.94;;;-2.92;75.89
71948;BME280;63257;55.082;38.772;2024-01-15T13:17:38;97806.69;;;-2.87;76.15
71948;BME280;63257;55.082;38.772;2024-01-15T13:20:06;97801.81;;;-2.95;76.52
71948;BME280;63257;55.082;38.772;2024-01-15T13:22:32;97804.97;;;-2.87;76.47
71948;BME280;63257;55.082;38.772;2024-01-15T13:24:58;97812.84;;;-2.92;76.69